createdAt,value
2022-10-25T00:00:29.650Z,99.99
2022-10-25T00:01:30.110Z,99.99
2022-10-25T00:02:29.810Z,99.99
2022-10-25T00:03:29.651Z,99.99
2022-10-25T00:04:29.678Z,99.99
2022-10-25T00:05:32.276Z,99.99
2022-10-25T00:06:29.656Z,99.99
2022-10-25T00:07:29.675Z,99.99
2022-10-25T00:08:29.519Z,99.99
2022-10-25T00:09:29.689Z,99.99
2022-10-25T00:10:29.658Z,99.99
2022-10-25T00:11:29.666Z,99.99
2022-10-25T00:12:30.254Z,99.99
2022-10-25T00:13:29.664Z,99.99
2022-10-25T00:14:29.666Z,99.99
2022-10-25T00:15:29.729Z,99.99
2022-10-25T00:16:32.694Z,99.99
2022-10-25T00:17:29.719Z,99.99
2022-10-25T00:18:29.685Z,99.99
2022-10-25T00:19:29.672Z,99.99
2022-10-25T00:20:29.705Z,99.99
2022-10-25T00:21:29.694Z,99.99
2022-10-25T00:22:29.702Z,99.99
2022-10-25T00:23:29.683Z,99.99
2022-10-25T00:24:29.679Z,99.99
2022-10-25T00:25:29.713Z,99.99
2022-10-25T00:26:29.688Z,99.99
2022-10-25T00:27:31.317Z,99.99
2022-10-25T00:28:29.697Z,99.99
2022-10-25T00:29:29.698Z,99.99
2022-10-25T00:30:29.698Z,99.99
2022-10-25T00:31:29.714Z,99.99
2022-10-25T00:32:29.691Z,99.99
2022-10-25T00:33:29.705Z,99.99
2022-10-25T00:34:29.703Z,99.99
2022-10-25T00:35:29.704Z,99.99
2022-10-25T00:36:29.732Z,99.99
2022-10-25T00:37:29.720Z,99.99
2022-10-25T00:38:32.582Z,99.99
2022-10-25T00:39:29.737Z,99.99
2022-10-25T00:40:29.714Z,99.99
2022-10-25T00:41:29.747Z,99.99
2022-10-25T00:42:29.715Z,99.99
2022-10-25T00:43:29.712Z,99.99
2022-10-25T00:44:29.716Z,99.99
2022-10-25T00:45:29.726Z,99.99
2022-10-25T00:46:29.728Z,99.99
2022-10-25T00:47:29.890Z,99.99
2022-10-25T00:48:29.728Z,99.99
2022-10-25T00:49:32.599Z,99.99
2022-10-25T00:50:29.732Z,99.99
2022-10-25T00:51:29.727Z,99.99
2022-10-25T00:52:29.765Z,99.99
2022-10-25T00:53:29.741Z,99.99
2022-10-25T00:54:29.749Z,99.99
2022-10-25T00:55:29.744Z,99.99
2022-10-25T00:56:29.741Z,99.99
2022-10-25T00:57:29.772Z,99.99
2022-10-25T00:58:29.916Z,99.99
2022-10-25T00:59:29.742Z,99.99
2022-10-25T01:00:32.762Z,99.99
2022-10-25T01:01:29.981Z,99.99
2022-10-25T01:02:30.013Z,99.99
2022-10-25T01:03:29.751Z,99.99
2022-10-25T01:04:29.752Z,99.99
2022-10-25T01:05:29.787Z,99.99
2022-10-25T01:06:29.755Z,99.99
2022-10-25T01:07:29.784Z,99.99
2022-10-25T01:08:29.790Z,99.99
2022-10-25T01:09:29.762Z,99.99
2022-10-25T01:10:29.760Z,99.99
2022-10-25T01:11:29.764Z,99.99
2022-10-25T01:12:29.766Z,99.99
2022-10-25T01:13:29.793Z,99.99
2022-10-25T01:14:29.769Z,99.99
2022-10-25T01:15:29.780Z,99.99
2022-10-25T01:16:29.805Z,99.99
2022-10-25T01:17:29.773Z,99.99
2022-10-25T01:18:29.771Z,99.99
2022-10-25T01:19:29.857Z,99.99
2022-10-25T01:20:29.780Z,99.99
2022-10-25T01:21:29.776Z,99.99
2022-10-25T01:22:29.780Z,99.99
2022-10-25T01:23:29.805Z,99.99
2022-10-25T01:24:29.816Z,99.99
2022-10-25T01:25:29.786Z,99.99
2022-10-25T01:26:29.797Z,99.99
2022-10-25T01:27:32.844Z,99.99
2022-10-25T01:28:29.820Z,99.99
2022-10-25T01:29:29.826Z,99.99
2022-10-25T01:30:29.794Z,99.99
2022-10-25T01:31:29.798Z,99.99
2022-10-25T01:32:29.804Z,99.99
2022-10-25T01:33:29.828Z,99.99
2022-10-25T01:34:29.805Z,99.99
2022-10-25T01:35:29.805Z,99.99
2022-10-25T01:36:29.811Z,99.99
2022-10-25T01:37:29.808Z,99.99
2022-10-25T01:38:34.088Z,99.99
2022-10-25T01:39:29.814Z,99.99
2022-10-25T01:40:29.844Z,99.99
2022-10-25T01:41:29.819Z,99.99
2022-10-25T01:42:29.830Z,99.99
2022-10-25T01:43:29.843Z,99.99
2022-10-25T01:44:29.978Z,99.99
2022-10-25T01:45:29.853Z,99.99
2022-10-25T01:46:29.833Z,99.99
2022-10-25T01:47:29.823Z,99.99
2022-10-25T01:48:29.849Z,99.99
2022-10-25T01:49:32.605Z,99.99
2022-10-25T01:50:29.885Z,99.99
2022-10-25T01:51:29.833Z,99.99
2022-10-25T01:52:29.846Z,99.99
2022-10-25T01:53:29.868Z,99.99
2022-10-25T01:54:29.935Z,99.99
2022-10-25T01:55:29.845Z,99.99
2022-10-25T01:56:29.874Z,99.99
2022-10-25T01:57:29.856Z,99.99
2022-10-25T01:58:29.868Z,99.99
2022-10-25T01:59:29.847Z,99.99
2022-10-25T02:00:33.066Z,99.99
2022-10-25T02:01:30.419Z,99.99
2022-10-25T02:02:32.848Z,99.99
2022-10-25T02:03:29.875Z,99.99
2022-10-25T02:04:29.850Z,99.99
2022-10-25T02:05:29.869Z,99.99
2022-10-25T02:06:29.862Z,99.99
2022-10-25T02:07:29.919Z,99.99
2022-10-25T02:08:29.881Z,99.99
2022-10-25T02:09:29.863Z,99.99
2022-10-25T02:10:29.858Z,99.99
2022-10-25T02:11:29.870Z,99.99
2022-10-25T02:12:29.896Z,99.99
2022-10-25T02:13:29.897Z,99.99
2022-10-25T02:14:29.874Z,99.99
2022-10-25T02:15:29.868Z,99.99
2022-10-25T02:16:29.903Z,99.99
2022-10-25T02:17:29.877Z,99.99
2022-10-25T02:19:29.914Z,99.99
2022-10-25T02:20:29.879Z,99.99
2022-10-25T02:21:29.918Z,99.99
2022-10-25T02:22:32.864Z,99.99
2022-10-25T02:23:29.904Z,99.99
2022-10-25T02:24:29.893Z,99.99
2022-10-25T02:25:29.897Z,99.99
2022-10-25T02:26:29.917Z,99.99
2022-10-25T02:27:29.895Z,99.99
2022-10-25T02:28:32.666Z,99.99
2022-10-25T02:29:29.898Z,99.99
2022-10-25T02:30:29.906Z,99.99
2022-10-25T02:31:30.001Z,99.99
2022-10-25T02:32:32.704Z,99.99
2022-10-25T02:33:29.906Z,99.99
2022-10-25T02:34:29.907Z,99.99
2022-10-25T02:35:29.911Z,99.99
2022-10-25T02:36:29.909Z,99.99
2022-10-25T02:37:29.908Z,99.99
2022-10-25T02:38:29.927Z,99.99
2022-10-25T02:39:33.597Z,99.99
2022-10-25T02:40:32.643Z,99.99
2022-10-25T02:41:29.928Z,99.99
2022-10-25T02:42:29.943Z,99.99
2022-10-25T02:43:33.037Z,99.99
2022-10-25T02:44:29.954Z,99.99
2022-10-25T02:45:29.920Z,99.99
2022-10-25T02:46:29.919Z,99.99
2022-10-25T02:47:29.924Z,99.99
2022-10-25T02:48:29.952Z,99.99
2022-10-25T02:49:29.925Z,99.99
2022-10-25T02:50:29.943Z,99.99
2022-10-25T02:51:29.934Z,99.99
2022-10-25T02:52:29.938Z,99.99
2022-10-25T02:53:29.935Z,99.99
2022-10-25T02:54:33.053Z,99.99
2022-10-25T02:55:29.937Z,99.99
2022-10-25T02:56:29.937Z,99.99
2022-10-25T02:57:29.940Z,99.99
2022-10-25T02:58:29.970Z,99.99
2022-10-25T02:59:29.940Z,99.99
2022-10-25T03:00:30.078Z,99.99
2022-10-25T03:01:30.407Z,99.99
2022-10-25T03:02:29.952Z,99.99
2022-10-25T03:03:29.963Z,99.99
2022-10-25T03:04:29.979Z,99.99
2022-10-25T03:05:32.715Z,99.99
2022-10-25T03:06:29.954Z,99.99
2022-10-25T03:07:29.955Z,99.99
2022-10-25T03:08:30.994Z,99.99
2022-10-25T03:09:29.956Z,99.99
2022-10-25T03:10:29.962Z,99.99
2022-10-25T03:11:29.955Z,99.99
2022-10-25T03:12:29.964Z,99.99
2022-10-25T03:13:29.968Z,99.99
2022-10-25T03:14:30.000Z,99.99
2022-10-25T03:15:29.971Z,99.99
2022-10-25T03:16:32.831Z,99.99
2022-10-25T03:17:29.977Z,99.99
2022-10-25T03:18:29.974Z,99.99
2022-10-25T03:19:29.980Z,99.99
2022-10-25T03:20:30.004Z,99.99
2022-10-25T03:21:29.989Z,99.99
2022-10-25T03:22:29.988Z,99.99
2022-10-25T03:23:29.985Z,99.99
2022-10-25T03:24:30.017Z,99.99
2022-10-25T03:25:34.099Z,99.99
2022-10-25T03:26:29.992Z,99.99
2022-10-25T03:27:32.796Z,99.99
2022-10-25T03:28:29.992Z,99.99
2022-10-25T03:29:29.990Z,99.99
2022-10-25T03:30:29.992Z,99.99
2022-10-25T03:31:31.195Z,99.99
2022-10-25T03:32:30.028Z,99.99
2022-10-25T03:34:30.012Z,99.99
2022-10-25T03:35:30.017Z,99.99
2022-10-25T03:36:30.029Z,99.99
2022-10-25T03:37:30.006Z,99.99
2022-10-25T03:38:32.908Z,99.99
2022-10-25T03:39:30.011Z,99.99
2022-10-25T03:40:30.026Z,99.99
2022-10-25T03:41:30.014Z,99.99
2022-10-25T03:42:30.012Z,99.99
2022-10-25T03:43:31.046Z,99.99
2022-10-25T03:44:30.021Z,99.99
2022-10-25T03:45:30.019Z,99.99
2022-10-25T03:46:30.032Z,99.99
2022-10-25T03:47:30.094Z,99.99
2022-10-25T03:48:30.069Z,99.99
2022-10-25T03:49:30.048Z,99.99
2022-10-25T03:50:30.028Z,99.99
2022-10-25T03:51:30.031Z,99.99
2022-10-25T03:52:30.059Z,99.99
2022-10-25T03:53:30.036Z,99.99
2022-10-25T03:54:31.800Z,99.99
2022-10-25T03:55:30.035Z,99.99
2022-10-25T03:56:30.038Z,99.99
2022-10-25T03:57:30.048Z,99.99
2022-10-25T03:58:30.064Z,99.99
2022-10-25T03:59:30.064Z,99.99
2022-10-25T04:00:30.218Z,99.99
2022-10-25T04:01:30.350Z,99.99
2022-10-25T04:02:30.050Z,99.99
2022-10-25T04:03:30.053Z,99.99
2022-10-25T04:04:30.096Z,99.99
2022-10-25T04:05:32.930Z,99.99
2022-10-25T04:06:30.059Z,99.99
2022-10-25T04:07:30.057Z,99.99
2022-10-25T04:08:30.089Z,99.99
2022-10-25T04:09:30.139Z,99.99
2022-10-25T04:10:30.158Z,99.99
2022-10-25T04:11:30.061Z,99.99
2022-10-25T04:12:30.064Z,99.99
2022-10-25T04:13:30.078Z,99.99
2022-10-25T04:14:30.111Z,99.99
2022-10-25T04:15:30.083Z,99.99
2022-10-25T04:16:32.917Z,99.99
2022-10-25T04:17:30.076Z,99.99
2022-10-25T04:18:30.074Z,99.99
2022-10-25T04:19:30.096Z,99.99
2022-10-25T04:20:30.107Z,99.99
2022-10-25T04:21:30.080Z,99.99
2022-10-25T04:22:30.143Z,99.99
2022-10-25T04:23:30.094Z,99.99
2022-10-25T04:24:30.146Z,99.99
2022-10-25T04:25:30.094Z,99.99
2022-10-25T04:26:30.091Z,99.99
2022-10-25T04:27:33.118Z,99.99
2022-10-25T04:28:30.087Z,99.99
2022-10-25T04:29:30.110Z,99.99
2022-10-25T04:30:31.988Z,99.99
2022-10-25T04:31:30.098Z,99.99
2022-10-25T04:32:30.107Z,99.99
2022-10-25T04:33:30.096Z,99.99
2022-10-25T04:34:30.119Z,99.99
2022-10-25T04:35:30.109Z,99.99
2022-10-25T04:36:30.129Z,99.99
2022-10-25T04:37:30.123Z,99.99
2022-10-25T04:38:30.116Z,99.99
2022-10-25T04:39:30.135Z,99.99
2022-10-25T04:40:30.134Z,99.99
2022-10-25T04:41:30.119Z,99.99
2022-10-25T04:42:30.118Z,99.99
2022-10-25T04:43:30.111Z,99.99
2022-10-25T04:44:30.140Z,99.99
2022-10-25T04:45:30.124Z,99.99
2022-10-25T04:46:30.119Z,99.99
2022-10-25T04:47:30.204Z,99.99
2022-10-25T04:48:30.134Z,99.99
2022-10-25T04:49:30.153Z,99.99
2022-10-25T04:50:30.123Z,99.99
2022-10-25T04:51:30.126Z,99.99
2022-10-25T04:52:30.154Z,99.99
2022-10-25T04:53:30.131Z,99.99
2022-10-25T04:54:30.163Z,99.99
2022-10-25T04:55:30.144Z,99.99
2022-10-25T04:56:30.175Z,99.99
2022-10-25T04:57:30.140Z,99.99
2022-10-25T04:58:33.800Z,99.99
2022-10-25T04:59:33.456Z,99.99
2022-10-25T05:00:30.146Z,99.99
2022-10-25T05:01:30.500Z,99.99
2022-10-25T05:02:30.271Z,99.99
2022-10-25T05:03:30.309Z,99.99
2022-10-25T05:04:30.148Z,99.99
2022-10-25T05:05:30.152Z,99.99
2022-10-25T05:06:30.155Z,99.99
2022-10-25T05:07:30.163Z,99.99
2022-10-25T05:08:30.183Z,99.99
2022-10-25T05:09:30.168Z,99.99
2022-10-25T05:10:32.933Z,99.99
2022-10-25T05:11:30.292Z,99.99
2022-10-25T05:12:30.187Z,99.99
2022-10-25T05:13:30.169Z,99.99
2022-10-25T05:14:30.172Z,99.99
2022-10-25T05:15:30.172Z,99.99
2022-10-25T05:16:30.311Z,99.99
2022-10-25T05:17:33.166Z,99.99
2022-10-25T05:18:30.172Z,99.99
2022-10-25T05:19:32.927Z,99.99
2022-10-25T05:20:30.173Z,99.99
2022-10-25T05:21:34.290Z,99.99
2022-10-25T05:22:30.206Z,99.99
2022-10-25T05:23:30.175Z,99.99
2022-10-25T05:24:30.260Z,99.99
2022-10-25T05:25:30.215Z,99.99
2022-10-25T05:26:30.209Z,99.99
2022-10-25T05:27:30.199Z,99.99
2022-10-25T05:28:30.214Z,99.99
2022-10-25T05:29:30.190Z,99.99
2022-10-25T05:30:30.202Z,99.99
2022-10-25T05:31:30.036Z,99.99
2022-10-25T05:32:31.306Z,99.99
2022-10-25T05:33:30.202Z,99.99
2022-10-25T05:34:30.287Z,99.99
2022-10-25T05:35:30.201Z,99.99
2022-10-25T05:36:30.199Z,99.99
2022-10-25T05:37:30.202Z,99.99
2022-10-25T05:38:32.027Z,99.99
2022-10-25T05:39:30.207Z,99.99
2022-10-25T05:40:30.235Z,99.99
2022-10-25T05:41:34.539Z,99.99
2022-10-25T05:42:30.211Z,99.99
2022-10-25T05:43:33.016Z,99.99
2022-10-25T05:44:30.268Z,99.99
2022-10-25T05:45:30.222Z,99.99
2022-10-25T05:46:30.238Z,99.99
2022-10-25T05:47:30.225Z,99.99
2022-10-25T05:48:30.231Z,99.99
2022-10-25T05:49:30.222Z,99.99
2022-10-25T05:50:30.317Z,99.99
2022-10-25T05:51:37.567Z,99.99
2022-10-25T05:52:30.246Z,99.99
2022-10-25T05:53:30.235Z,99.99
2022-10-25T05:54:33.252Z,99.99
2022-10-25T05:55:33.273Z,99.99
2022-10-25T05:56:30.235Z,99.99
2022-10-25T05:57:30.252Z,99.99
2022-10-25T05:58:30.255Z,99.99
2022-10-25T05:59:30.244Z,99.99
2022-10-25T06:00:30.467Z,99.99
2022-10-25T06:01:30.599Z,99.99
2022-10-25T06:02:30.407Z,99.99
2022-10-25T06:03:30.253Z,99.99
2022-10-25T06:04:30.247Z,99.99
2022-10-25T06:05:30.328Z,99.99
2022-10-25T06:06:30.258Z,99.99
2022-10-25T06:07:30.266Z,99.99
2022-10-25T06:08:30.268Z,99.99
2022-10-25T06:09:30.269Z,99.99
2022-10-25T06:10:30.267Z,99.99
2022-10-25T06:11:30.291Z,99.99
2022-10-25T06:12:30.094Z,99.99
2022-10-25T06:13:30.106Z,99.99
2022-10-25T06:14:30.266Z,99.99
2022-10-25T06:15:30.281Z,99.99
2022-10-25T06:16:30.306Z,99.99
2022-10-25T06:17:30.276Z,99.99
2022-10-25T06:18:30.275Z,99.99
2022-10-25T06:19:30.276Z,99.99
2022-10-25T06:20:30.552Z,99.99
2022-10-25T06:21:33.406Z,99.99
2022-10-25T06:22:30.280Z,99.99
2022-10-25T06:23:30.274Z,99.99
2022-10-25T06:24:30.280Z,99.99
2022-10-25T06:25:30.315Z,99.99
2022-10-25T06:26:30.286Z,99.99
2022-10-25T06:27:30.316Z,99.99
2022-10-25T06:28:30.302Z,99.99
2022-10-25T06:29:30.295Z,99.99
2022-10-25T06:31:30.303Z,99.99
2022-10-25T06:32:33.324Z,99.99
2022-10-25T06:33:30.562Z,99.99
2022-10-25T06:34:30.306Z,99.99
2022-10-25T06:35:30.355Z,99.99
2022-10-25T06:36:30.489Z,99.99
2022-10-25T06:37:30.352Z,99.99
2022-10-25T06:38:30.301Z,99.99
2022-10-25T06:39:30.320Z,99.99
2022-10-25T06:40:30.340Z,99.99
2022-10-25T06:41:30.402Z,99.99
2022-10-25T06:42:30.324Z,99.99
2022-10-25T06:43:31.409Z,99.99
2022-10-25T06:44:30.314Z,99.99
2022-10-25T06:45:30.342Z,99.99
2022-10-25T06:46:30.324Z,99.99
2022-10-25T06:47:30.325Z,99.99
2022-10-25T06:48:31.005Z,99.99
2022-10-25T06:49:30.339Z,99.99
2022-10-25T06:50:30.362Z,99.99
2022-10-25T06:51:30.329Z,99.99
2022-10-25T06:52:30.332Z,99.99
2022-10-25T06:53:30.331Z,99.99
2022-10-25T06:54:33.195Z,99.99
2022-10-25T06:55:30.353Z,99.99
2022-10-25T06:56:30.338Z,99.99
2022-10-25T06:57:30.340Z,99.99
2022-10-25T06:58:30.335Z,99.99
2022-10-25T06:59:30.431Z,99.99
2022-10-25T07:00:30.380Z,99.99
2022-10-25T07:01:30.564Z,99.99
2022-10-25T07:02:30.650Z,99.99
2022-10-25T07:03:30.352Z,99.99
2022-10-25T07:04:30.379Z,99.99
2022-10-25T07:05:30.399Z,99.99
2022-10-25T07:07:30.401Z,99.99
2022-10-25T07:08:30.355Z,99.99
2022-10-25T07:09:30.356Z,99.99
2022-10-25T07:10:30.377Z,99.99
2022-10-25T07:11:30.405Z,99.99
2022-10-25T07:12:30.362Z,99.99
2022-10-25T07:13:30.362Z,99.99
2022-10-25T07:14:30.444Z,99.99
2022-10-25T07:15:30.464Z,99.99
2022-10-25T07:16:30.376Z,99.99
2022-10-25T07:17:30.374Z,99.99
2022-10-25T07:18:30.375Z,99.99
2022-10-25T07:19:30.409Z,99.99
2022-10-25T07:20:30.425Z,99.99
2022-10-25T07:21:30.377Z,99.99
2022-10-25T07:22:30.385Z,99.99
2022-10-25T07:23:30.380Z,99.99
2022-10-25T07:24:30.379Z,99.99
2022-10-25T07:25:30.434Z,99.99
2022-10-25T07:26:33.598Z,99.99
2022-10-25T07:27:30.386Z,99.99
2022-10-25T07:28:30.386Z,99.99
2022-10-25T07:29:30.387Z,99.99
2022-10-25T07:30:30.415Z,99.99
2022-10-25T07:31:30.414Z,99.99
2022-10-25T07:32:30.395Z,99.99
2022-10-25T07:33:30.399Z,99.99
2022-10-25T07:34:30.395Z,99.99
2022-10-25T07:35:32.976Z,99.99
2022-10-25T07:36:30.430Z,99.99
2022-10-25T07:37:33.319Z,99.99
2022-10-25T07:38:30.439Z,99.99
2022-10-25T07:39:30.412Z,99.99
2022-10-25T07:40:30.445Z,99.99
2022-10-25T07:41:30.405Z,99.99
2022-10-25T07:42:30.421Z,99.99
2022-10-25T07:43:30.416Z,99.99
2022-10-25T07:44:30.429Z,99.99
2022-10-25T07:45:33.504Z,99.99
2022-10-25T07:46:30.449Z,99.99
2022-10-25T07:47:30.447Z,99.99
2022-10-25T07:48:33.262Z,99.99
2022-10-25T07:49:30.423Z,99.99
2022-10-25T07:50:30.445Z,99.99
2022-10-25T07:51:30.432Z,99.99
2022-10-25T07:52:30.471Z,99.99
2022-10-25T07:53:30.435Z,99.99
2022-10-25T07:54:30.458Z,99.99
2022-10-25T07:55:30.465Z,99.99
2022-10-25T07:56:30.441Z,99.99
2022-10-25T07:57:30.488Z,99.99
2022-10-25T07:58:30.448Z,99.99
2022-10-25T07:59:33.508Z,99.99
2022-10-25T08:00:30.478Z,99.99
2022-10-25T08:01:30.643Z,99.99
2022-10-25T08:02:30.446Z,99.99
2022-10-25T08:03:30.659Z,99.99
2022-10-25T08:05:30.474Z,99.99
2022-10-25T08:06:30.463Z,99.99
2022-10-25T08:07:30.455Z,99.99
2022-10-25T08:08:30.474Z,99.99
2022-10-25T08:09:40.074Z,99.99
2022-10-25T08:10:33.568Z,99.99
2022-10-25T08:11:30.491Z,99.99
2022-10-25T08:12:30.464Z,99.99
2022-10-25T08:13:33.209Z,99.99
2022-10-25T08:14:30.473Z,99.99
2022-10-25T08:15:30.507Z,99.99
2022-10-25T08:16:30.470Z,99.99
2022-10-25T08:17:30.479Z,99.99
2022-10-25T08:18:30.475Z,99.99
2022-10-25T08:19:30.506Z,99.99
2022-10-25T08:21:06.994Z,99.99
2022-10-25T08:21:33.385Z,99.99
2022-10-25T08:22:30.476Z,99.99
2022-10-25T08:23:30.504Z,99.99
2022-10-25T08:24:31.028Z,99.99
2022-10-25T08:25:30.533Z,99.99
2022-10-25T08:26:34.428Z,99.99
2022-10-25T08:27:30.489Z,99.99
2022-10-25T08:28:30.519Z,99.99
2022-10-25T08:29:30.507Z,99.99
2022-10-25T08:30:30.517Z,99.99
2022-10-25T08:31:30.570Z,99.99
2022-10-25T08:32:30.507Z,99.99
2022-10-25T08:33:30.510Z,99.99
2022-10-25T08:34:34.669Z,99.99
2022-10-25T08:35:30.549Z,99.99
2022-10-25T08:36:30.530Z,99.99
2022-10-25T08:37:30.544Z,99.99
2022-10-25T08:38:30.512Z,99.99
2022-10-25T08:39:30.534Z,99.99
2022-10-25T08:40:30.568Z,99.99
2022-10-25T08:41:30.532Z,99.99
2022-10-25T08:42:30.513Z,99.99
2022-10-25T08:43:30.522Z,99.99
2022-10-25T08:44:30.521Z,99.99
2022-10-25T08:45:30.558Z,99.99
2022-10-25T08:46:30.519Z,99.99
2022-10-25T08:47:30.524Z,99.99
2022-10-25T08:48:30.758Z,99.99
2022-10-25T08:49:30.537Z,99.99
2022-10-25T08:50:30.597Z,99.99
2022-10-25T08:51:30.538Z,99.99
2022-10-25T08:52:30.537Z,99.99
2022-10-25T08:53:30.566Z,99.99
2022-10-25T08:54:30.557Z,99.99
2022-10-25T08:55:30.579Z,99.99
2022-10-25T08:56:30.583Z,99.99
2022-10-25T08:57:30.550Z,99.99
2022-10-25T08:58:30.556Z,99.99
2022-10-25T08:59:33.717Z,99.99
2022-10-25T09:00:30.581Z,99.99
2022-10-25T09:01:30.839Z,99.99
2022-10-25T09:02:30.794Z,99.99
2022-10-25T09:03:30.803Z,99.99
2022-10-25T09:04:30.556Z,99.99
2022-10-25T09:05:30.590Z,99.99
2022-10-25T09:06:30.588Z,99.99
2022-10-25T09:07:30.701Z,99.99
2022-10-25T09:08:30.571Z,99.99
2022-10-25T09:09:30.572Z,99.99
2022-10-25T09:10:32.035Z,99.99
2022-10-25T09:11:30.582Z,99.99
2022-10-25T09:12:30.592Z,99.99
2022-10-25T09:13:30.770Z,99.99
2022-10-25T09:14:30.587Z,99.99
2022-10-25T09:15:30.612Z,99.99
2022-10-25T09:16:30.585Z,99.99
2022-10-25T09:17:30.589Z,99.99
2022-10-25T09:18:30.589Z,99.99
2022-10-25T09:19:30.590Z,99.99
2022-10-25T09:20:30.613Z,99.99
2022-10-25T09:21:33.708Z,99.99
2022-10-25T09:22:30.593Z,99.99
2022-10-25T09:23:30.591Z,99.99
2022-10-25T09:24:30.595Z,99.99
2022-10-25T09:25:30.618Z,99.99
2022-10-25T09:26:30.621Z,99.99
2022-10-25T09:27:30.601Z,99.99
2022-10-25T09:28:30.629Z,99.99
2022-10-25T09:29:30.622Z,99.99
2022-10-25T09:30:30.627Z,99.99
2022-10-25T09:31:30.630Z,99.99
2022-10-25T09:32:30.622Z,99.99
2022-10-25T09:33:30.702Z,99.99
2022-10-25T09:34:30.619Z,99.99
2022-10-25T09:35:30.694Z,99.99
2022-10-25T09:36:30.625Z,99.99
2022-10-25T09:37:30.648Z,99.99
2022-10-25T09:38:30.621Z,99.99
2022-10-25T09:39:30.628Z,99.99
2022-10-25T09:40:30.624Z,99.99
2022-10-25T09:41:30.674Z,99.99
2022-10-25T09:42:30.626Z,99.99
2022-10-25T09:43:30.637Z,99.99
2022-10-25T09:44:30.704Z,99.99
2022-10-25T09:45:30.645Z,99.99
2022-10-25T09:46:30.634Z,99.99
2022-10-25T09:47:30.638Z,99.99
2022-10-25T09:48:30.639Z,99.99
2022-10-25T09:49:30.641Z,99.99
2022-10-25T09:50:30.639Z,99.99
2022-10-25T09:51:30.643Z,99.99
2022-10-25T09:52:30.647Z,99.99
2022-10-25T09:53:33.788Z,99.99
2022-10-25T09:54:30.649Z,99.99
2022-10-25T09:55:30.655Z,99.99
2022-10-25T09:56:30.654Z,99.99
2022-10-25T09:57:30.652Z,99.99
2022-10-25T09:58:30.670Z,99.99
2022-10-25T09:59:30.682Z,99.99
2022-10-25T10:00:30.691Z,99.99
2022-10-25T10:01:31.089Z,99.99
2022-10-25T10:02:30.964Z,99.99
2022-10-25T10:03:30.672Z,99.99
2022-10-25T10:04:33.691Z,99.99
2022-10-25T10:05:30.671Z,99.99
2022-10-25T10:06:30.685Z,99.99
2022-10-25T10:07:30.682Z,99.99
2022-10-25T10:08:30.680Z,99.99
2022-10-25T10:09:30.707Z,99.99
2022-10-25T10:10:30.719Z,99.99
2022-10-25T10:11:33.675Z,99.99
2022-10-25T10:12:30.679Z,99.99
2022-10-25T10:13:30.696Z,99.99
2022-10-25T10:14:30.688Z,99.99
2022-10-25T10:15:33.641Z,99.99
2022-10-25T10:16:30.720Z,99.99
2022-10-25T10:17:30.697Z,99.99
2022-10-25T10:18:30.719Z,99.99
2022-10-25T10:19:30.696Z,99.99
2022-10-25T10:20:30.701Z,99.99
2022-10-25T10:21:30.701Z,99.99
2022-10-25T10:22:30.718Z,99.99
2022-10-25T10:23:30.710Z,99.99
2022-10-25T10:24:30.702Z,99.99
2022-10-25T10:25:30.729Z,99.99
2022-10-25T10:26:33.609Z,99.99
2022-10-25T10:27:30.705Z,99.99
2022-10-25T10:28:30.734Z,99.99
2022-10-25T10:29:30.718Z,99.99
2022-10-25T10:30:30.717Z,99.99
2022-10-25T10:31:30.733Z,99.99
2022-10-25T10:32:30.865Z,99.99
2022-10-25T10:33:30.733Z,99.99
2022-10-25T10:34:30.723Z,99.99
2022-10-25T10:35:30.865Z,99.99
2022-10-25T10:36:30.753Z,99.99
2022-10-25T10:37:33.501Z,99.99
2022-10-25T10:38:30.731Z,99.99
2022-10-25T10:39:30.738Z,99.99
2022-10-25T10:40:30.731Z,99.99
2022-10-25T10:41:30.819Z,99.99
2022-10-25T10:43:30.737Z,99.99
2022-10-25T10:44:30.790Z,99.99
2022-10-25T10:45:30.751Z,99.99
2022-10-25T10:46:30.850Z,99.99
2022-10-25T10:47:30.749Z,99.99
2022-10-25T10:48:33.522Z,99.99
2022-10-25T10:49:30.755Z,99.99
2022-10-25T10:50:30.769Z,99.99
2022-10-25T10:51:47.471Z,99.99
2022-10-25T10:52:30.787Z,99.99
2022-10-25T10:53:30.780Z,99.99
2022-10-25T10:54:30.784Z,99.99
2022-10-25T10:55:30.768Z,99.99
2022-10-25T10:56:30.795Z,99.99
2022-10-25T10:57:30.938Z,99.99
2022-10-25T10:58:30.764Z,99.99
2022-10-25T10:59:33.637Z,99.99
2022-10-25T11:00:30.770Z,99.99
2022-10-25T11:01:31.015Z,99.99
2022-10-25T11:02:31.269Z,99.99
2022-10-25T11:03:30.773Z,99.99
2022-10-25T11:04:30.829Z,99.99
2022-10-25T11:05:30.789Z,99.99
2022-10-25T11:06:30.808Z,99.99
2022-10-25T11:07:30.833Z,99.99
2022-10-25T11:08:30.798Z,99.99
2022-10-25T11:09:30.784Z,99.99
2022-10-25T11:10:33.838Z,99.99
2022-10-25T11:11:30.826Z,99.99
2022-10-25T11:12:30.794Z,99.99
2022-10-25T11:13:30.914Z,99.99
2022-10-25T11:14:30.802Z,99.99
2022-10-25T11:15:30.799Z,99.99
2022-10-25T11:16:30.829Z,99.99
2022-10-25T11:17:33.679Z,99.99
2022-10-25T11:18:30.807Z,99.99
2022-10-25T11:19:30.803Z,99.99
2022-10-25T11:20:30.928Z,99.99
2022-10-25T11:21:30.890Z,99.99
2022-10-25T11:22:35.270Z,99.99
2022-10-25T11:23:30.849Z,99.99
2022-10-25T11:24:30.805Z,99.99
2022-10-25T11:25:30.920Z,99.99
2022-10-25T11:26:32.048Z,99.99
2022-10-25T11:27:35.055Z,99.99
2022-10-25T11:28:30.818Z,99.99
2022-10-25T11:29:39.807Z,99.99
2022-10-25T11:30:30.871Z,99.99
2022-10-25T11:31:30.841Z,99.99
2022-10-25T11:32:30.946Z,99.99
2022-10-25T11:33:30.845Z,99.99
2022-10-25T11:34:30.823Z,99.99
2022-10-25T11:35:30.828Z,99.99
2022-10-25T11:36:30.973Z,99.99
2022-10-25T11:37:33.836Z,99.99
2022-10-25T11:38:30.852Z,99.99
2022-10-25T11:39:30.848Z,99.99
2022-10-25T11:40:30.857Z,99.99
2022-10-25T11:41:30.891Z,99.99
2022-10-25T11:42:30.849Z,99.99
2022-10-25T11:43:30.881Z,99.99
2022-10-25T11:44:30.850Z,99.99
2022-10-25T11:45:31.005Z,99.99
2022-10-25T11:46:30.871Z,99.99
2022-10-25T11:47:30.860Z,99.99
2022-10-25T11:48:33.752Z,99.99
2022-10-25T11:49:30.856Z,99.99
2022-10-25T11:50:30.863Z,99.99
2022-10-25T11:51:30.907Z,99.99
2022-10-25T11:52:30.978Z,99.99
2022-10-25T11:53:30.863Z,99.99
2022-10-25T11:54:30.874Z,99.99
2022-10-25T11:55:31.922Z,99.99
2022-10-25T11:56:30.894Z,99.99
2022-10-25T11:57:30.883Z,99.99
2022-10-25T11:58:30.872Z,99.99
2022-10-25T11:59:30.874Z,99.99
2022-10-25T12:00:30.898Z,99.99
2022-10-25T12:01:31.124Z,99.99
2022-10-25T12:02:30.982Z,99.99
2022-10-25T12:03:30.884Z,99.99
2022-10-25T12:05:30.898Z,99.99
2022-10-25T12:06:30.927Z,99.99
2022-10-25T12:07:30.912Z,99.99
2022-10-25T12:08:31.044Z,99.99
2022-10-25T12:09:30.915Z,99.99
2022-10-25T12:10:30.905Z,99.99
2022-10-25T12:11:30.958Z,99.99
2022-10-25T12:12:30.895Z,99.99
2022-10-25T12:13:30.901Z,99.99
2022-10-25T12:14:30.899Z,99.99
2022-10-25T12:15:30.906Z,99.99
2022-10-25T12:16:30.974Z,99.99
2022-10-25T12:17:31.028Z,99.99
2022-10-25T12:18:30.911Z,99.99
2022-10-25T12:19:30.910Z,99.99
2022-10-25T12:21:30.943Z,99.99
2022-10-25T12:22:30.922Z,99.99
2022-10-25T12:23:30.921Z,99.99
2022-10-25T12:24:31.139Z,99.99
2022-10-25T12:25:30.929Z,99.99
2022-10-25T12:26:30.954Z,99.99
2022-10-25T12:27:30.928Z,99.99
2022-10-25T12:28:30.923Z,99.99
2022-10-25T12:29:30.980Z,99.99
2022-10-25T12:30:30.936Z,99.74
2022-10-25T12:31:33.836Z,99.99
2022-10-25T12:32:30.931Z,99.99
2022-10-25T12:33:31.051Z,99.5
2022-10-25T12:34:30.937Z,99.21
2022-10-25T12:35:30.940Z,98.97
2022-10-25T12:36:31.022Z,99.4
2022-10-25T12:37:30.965Z,98.92
2022-10-25T12:38:30.949Z,99.4
2022-10-25T12:39:30.984Z,99.02
2022-10-25T12:40:31.547Z,99.07
2022-10-25T12:41:30.952Z,98
2022-10-25T12:42:31.152Z,97.47
2022-10-25T12:43:30.947Z,97.47
2022-10-25T12:44:30.958Z,97.09
2022-10-25T12:45:30.965Z,97.72
2022-10-25T12:46:30.960Z,96.85
2022-10-25T12:47:31.020Z,97.04
2022-10-25T12:48:30.973Z,96.41
2022-10-25T12:49:31.076Z,96.03
2022-10-25T12:50:30.971Z,95.93
2022-10-25T12:51:40.127Z,95.64
2022-10-25T12:52:30.963Z,95.84
2022-10-25T12:53:33.734Z,96.32
2022-10-25T12:54:30.987Z,95.69
2022-10-25T12:55:30.983Z,95.74
2022-10-25T12:56:31.103Z,95.45
2022-10-25T12:57:31.036Z,94.82
2022-10-25T12:58:30.989Z,95.01
2022-10-25T12:59:30.985Z,95.01
2022-10-25T13:00:31.017Z,94.53